Aérodrome :







RETROUVEZ-NOUS SUR...

 
LOGIN :

S'inscrire | Disclaimer

   EN    FR    IT 

 









Légende :    VFR   VFR Marginal   IFR   IFR Intensif   IFR Très Intensif
Visi : 
Plafond : 
>= 8 km
>= 3000ft
5 à 8 km
1000 à 3000 ft
1500m à 5 km
500 à 1000 ft
800 à 1500m
200 à 500 ft
< 800m
< 200 ft
Symboles :   Orages  Brouillard  Fortes neiges  Fortes précipitations  Vent > 20 kt






- Altitude de l'aérodrome : 215 ft
- Code IATA : MSS


KMSS - Massena International Richards Field

DERNIER METAR :
  • 211553Z AUTO 22012KT 10SM CLR M06/M12 A3039 RMK AO2 SLP303 T10611122

METARs EXPIRÉS :
  • 211503Z AUTO 22017G22KT 10SM BKN030 OVC070 M07/M13 A3042 RMK AO2 T10721133
  • 211353Z AUTO 20009KT 10SM OVC036 M10/M16 A3044 RMK AO2 SNE1257 SLP318 P0000 T11001161

TAF KMSS
Valide du 21 à 12h jusqu'au 22 à 12h UTC


211123Z 2112/2212 22006KT P6SM BKN035
FM211800 23013G21KT P6SM FEW250
FM220000 22014KT P6SM SKC WS020/23045KT



MET'MAP, la Météo Aéronautique d'un coup d'oeil ! - Copyright ORBIFLY Décembre 2007 - Disclaimer

ORBIFLY MET'MAP TEAM :

Programmation & Développement : Alexandra Zaïnal
Sur une idée originale de : Baudouin d'Aumeries
Assistance à la programmation : Marc-Olivier Méhu
Soutien technique & logistique : Manuel Goepfert

Contact : metmap@orbifly.com




SOURCES & CREDITS :

   NOAA